sensor_id;sensor_type;location;lat;lon;timestamp;P1;durP1;ratioP1;P2;durP2;ratioP2
3052;SDS011;1536;51.098;6.414;2024-02-26T00:01:51;3.60;;;2.63;;
3052;SDS011;1536;51.098;6.414;2024-02-26T00:04:18;2.53;;;2.10;;
3052;SDS011;1536;51.098;6.414;2024-02-26T00:06:44;5.28;;;2.60;;
3052;SDS011;1536;51.098;6.414;2024-02-26T00:09:11;2.42;;;2.22;;
3052;SDS011;1536;51.098;6.414;2024-02-26T00:11:38;4.18;;;2.63;;
3052;SDS011;1536;51.098;6.414;2024-02-26T00:14:05;2.00;;;1.90;;
3052;SDS011;1536;51.098;6.414;2024-02-26T00:16:33;2.40;;;2.20;;
3052;SDS011;1536;51.098;6.414;2024-02-26T00:19:00;2.67;;;2.35;;
3052;SDS011;1536;51.098;6.414;2024-02-26T00:21:27;2.33;;;2.13;;
3052;SDS011;1536;51.098;6.414;2024-02-26T00:23:54;3.28;;;2.42;;
3052;SDS011;1536;51.098;6.414;2024-02-26T00:26:21;2.78;;;2.20;;
3052;SDS011;1536;51.098;6.414;2024-02-26T00:28:48;2.78;;;2.28;;
3052;SDS011;1536;51.098;6.414;2024-02-26T00:31:15;2.53;;;2.08;;
3052;SDS011;1536;51.098;6.414;2024-02-26T00:33:44;4.35;;;2.85;;
3052;SDS011;1536;51.098;6.414;2024-02-26T00:36:11;5.18;;;2.40;;
3052;SDS011;1536;51.098;6.414;2024-02-26T00:38:37;1.90;;;1.80;;
3052;SDS011;1536;51.098;6.414;2024-02-26T00:41:05;3.78;;;2.30;;
3052;SDS011;1536;51.098;6.414;2024-02-26T00:43:32;2.55;;;1.98;;
3052;SDS011;1536;51.098;6.414;2024-02-26T00:45:59;2.38;;;2.13;;
3052;SDS011;1536;51.098;6.414;2024-02-26T00:48:26;2.65;;;2.28;;
3052;SDS011;1536;51.098;6.414;2024-02-26T00:50:54;4.57;;;2.05;;
3052;SDS011;1536;51.098;6.414;2024-02-26T00:53:21;3.55;;;2.80;;
3052;SDS011;1536;51.098;6.414;2024-02-26T00:55:50;2.35;;;2.05;;
3052;SDS011;1536;51.098;6.414;2024-02-26T00:58:16;2.65;;;1.80;;
3052;SDS011;1536;51.098;6.414;2024-02-26T01:00:44;2.75;;;2.22;;
3052;SDS011;1536;51.098;6.414;2024-02-26T01:03:11;2.15;;;1.80;;
3052;SDS011;1536;51.098;6.414;2024-02-26T01:05:38;2.20;;;1.70;;
3052;SDS011;1536;51.098;6.414;2024-02-26T01:08:06;2.30;;;2.10;;
3052;SDS011;1536;51.098;6.414;2024-02-26T01:10:33;5.57;;;2.05;;
3052;SDS011;1536;51.098;6.414;2024-02-26T01:13:00;1.85;;;1.75;;
3052;SDS011;1536;51.098;6.414;2024-02-26T01:15:27;3.28;;;1.55;;
3052;SDS011;1536;51.098;6.414;2024-02-26T01:17:54;3.65;;;1.70;;
3052;SDS011;1536;51.098;6.414;2024-02-26T01:20:21;2.67;;;2.20;;
3052;SDS011;1536;51.098;6.414;2024-02-26T01:22:48;3.22;;;2.17;;
3052;SDS011;1536;51.098;6.414;2024-02-26T01:25:16;2.08;;;1.98;;
3052;SDS011;1536;51.098;6.414;2024-02-26T01:27:44;6.97;;;2.35;;
3052;SDS011;1536;51.098;6.414;2024-02-26T01:30:11;2.35;;;1.83;;
3052;SDS011;1536;51.098;6.414;2024-02-26T01:32:41;3.30;;;1.75;;
3052;SDS011;1536;51.098;6.414;2024-02-26T01:35:08;2.08;;;1.85;;
3052;SDS011;1536;51.098;6.414;2024-02-26T01:37:37;2.20;;;2.00;;
3052;SDS011;1536;51.098;6.414;2024-02-26T01:40:05;3.05;;;2.20;;
3052;SDS011;1536;51.098;6.414;2024-02-26T01:42:34;2.17;;;2.03;;
3052;SDS011;1536;51.098;6.414;2024-02-26T01:45:00;2.38;;;2.17;;
3052;SDS011;1536;51.098;6.414;2024-02-26T01:47:33;3.42;;;2.38;;
3052;SDS011;1536;51.098;6.414;2024-02-26T01:50:00;3.10;;;2.50;;
3052;SDS011;1536;51.098;6.414;2024-02-26T01:52:31;2.78;;;2.20;;
3052;SDS011;1536;51.098;6.414;2024-02-26T01:54:58;2.00;;;1.80;;
3052;SDS011;1536;51.098;6.414;2024-02-26T01:57:26;5.22;;;2.22;;
3052;SDS011;1536;51.098;6.414;2024-02-26T01:59:55;2.25;;;2.05;;
3052;SDS011;1536;51.098;6.414;2024-02-26T02:02:22;3.90;;;2.00;;
3052;SDS011;1536;51.098;6.414;2024-02-26T02:04:50;3.33;;;2.20;;
3052;SDS011;1536;51.098;6.414;2024-02-26T02:07:18;3.92;;;2.50;;
3052;SDS011;1536;51.098;6.414;2024-02-26T02:09:46;3.13;;;2.30;;
3052;SDS011;1536;51.098;6.414;2024-02-26T02:12:15;2.10;;;1.75;;
3052;SDS011;1536;51.098;6.414;2024-02-26T02:14:42;2.90;;;1.90;;
3052;SDS011;1536;51.098;6.414;2024-02-26T02:17:13;2.35;;;2.00;;
3052;SDS011;1536;51.098;6.414;2024-02-26T02:19:40;1.60;;;1.50;;
3052;SDS011;1536;51.098;6.414;2024-02-26T02:22:08;2.00;;;1.60;;
3052;SDS011;1536;51.098;6.414;2024-02-26T02:24:35;1.67;;;1.42;;
3052;SDS011;1536;51.098;6.414;2024-02-26T02:27:02;1.85;;;1.70;;
3052;SDS011;1536;51.098;6.414;2024-02-26T02:29:29;2.03;;;1.85;;
3052;SDS011;1536;51.098;6.414;2024-02-26T02:31:56;1.90;;;1.27;;
3052;SDS011;1536;51.098;6.414;2024-02-26T02:34:24;1.60;;;1.20;;
3052;SDS011;1536;51.098;6.414;2024-02-26T02:37:01;3.40;;;1.50;;
3052;SDS011;1536;51.098;6.414;2024-02-26T02:39:31;1.85;;;1.55;;
3052;SDS011;1536;51.098;6.414;2024-02-26T02:41:58;3.30;;;1.55;;
3052;SDS011;1536;51.098;6.414;2024-02-26T02:44:25;2.17;;;1.50;;
3052;SDS011;1536;51.098;6.414;2024-02-26T02:46:55;1.60;;;1.50;;
3052;SDS011;1536;51.098;6.414;2024-02-26T02:49:21;2.92;;;1.60;;
3052;SDS011;1536;51.098;6.414;2024-02-26T02:51:51;1.67;;;1.50;;
3052;SDS011;1536;51.098;6.414;2024-02-26T02:54:19;3.25;;;1.45;;
3052;SDS011;1536;51.098;6.414;2024-02-26T02:56:47;2.05;;;1.85;;
3052;SDS011;1536;51.098;6.414;2024-02-26T02:59:14;3.03;;;1.60;;
3052;SDS011;1536;51.098;6.414;2024-02-26T03:05:01;1.60;;;1.40;;
3052;SDS011;1536;51.098;6.414;2024-02-26T03:07:28;1.10;;;1.00;;
3052;SDS011;1536;51.098;6.414;2024-02-26T03:09:55;1.85;;;1.20;;
3052;SDS011;1536;51.098;6.414;2024-02-26T03:12:23;1.77;;;1.65;;
3052;SDS011;1536;51.098;6.414;2024-02-26T03:14:50;3.58;;;1.60;;
3052;SDS011;1536;51.098;6.414;2024-02-26T03:17:19;1.98;;;1.48;;
3052;SDS011;1536;51.098;6.414;2024-02-26T03:19:46;2.63;;;1.45;;
3052;SDS011;1536;51.098;6.414;2024-02-26T03:22:18;2.00;;;1.35;;
3052;SDS011;1536;51.098;6.414;2024-02-26T03:24:45;1.50;;;1.35;;
3052;SDS011;1536;51.098;6.414;2024-02-26T03:27:12;1.40;;;1.30;;
3052;SDS011;1536;51.098;6.414;2024-02-26T03:29:40;2.92;;;1.30;;
3052;SDS011;1536;51.098;6.414;2024-02-26T03:32:07;1.63;;;1.52;;
3052;SDS011;1536;51.098;6.414;2024-02-26T03:34:34;5.53;;;1.70;;
3052;SDS011;1536;51.098;6.414;2024-02-26T03:37:01;5.80;;;1.60;;
3052;SDS011;1536;51.098;6.414;2024-02-26T03:39:28;1.40;;;1.30;;
3052;SDS011;1536;51.098;6.414;2024-02-26T03:41:55;2.58;;;1.55;;
3052;SDS011;1536;51.098;6.414;2024-02-26T03:44:22;1.65;;;1.55;;
3052;SDS011;1536;51.098;6.414;2024-02-26T03:46:50;3.55;;;1.50;;
3052;SDS011;1536;51.098;6.414;2024-02-26T03:49:17;3.60;;;3.05;;
3052;SDS011;1536;51.098;6.414;2024-02-26T03:51:44;2.08;;;1.50;;
3052;SDS011;1536;51.098;6.414;2024-02-26T03:54:11;1.70;;;1.60;;
3052;SDS011;1536;51.098;6.414;2024-02-26T03:56:38;2.97;;;1.65;;
3052;SDS011;1536;51.098;6.414;2024-02-26T03:59:05;2.90;;;1.60;;
3052;SDS011;1536;51.098;6.414;2024-02-26T04:01:32;1.45;;;1.33;;
3052;SDS011;1536;51.098;6.414;2024-02-26T04:04:00;1.50;;;1.40;;
3052;SDS011;1536;51.098;6.414;2024-02-26T04:06:27;4.88;;;2.20;;
3052;SDS011;1536;51.098;6.414;2024-02-26T04:08:53;2.40;;;2.20;;
3052;SDS011;1536;51.098;6.414;2024-02-26T04:11:20;2.53;;;2.33;;
3052;SDS011;1536;51.098;6.414;2024-02-26T04:13:47;1.80;;;1.70;;
3052;SDS011;1536;51.098;6.414;2024-02-26T04:16:17;2.20;;;1.80;;
3052;SDS011;1536;51.098;6.414;2024-02-26T04:18:44;2.35;;;1.95;;
3052;SDS011;1536;51.098;6.414;2024-02-26T04:21:12;2.35;;;1.88;;
3052;SDS011;1536;51.098;6.414;2024-02-26T04:23:39;2.25;;;2.00;;
3052;SDS011;1536;51.098;6.414;2024-02-26T04:26:06;4.13;;;2.20;;
3052;SDS011;1536;51.098;6.414;2024-02-26T04:28:33;2.13;;;1.90;;
3052;SDS011;1536;51.098;6.414;2024-02-26T04:31:00;2.00;;;1.90;;
3052;SDS011;1536;51.098;6.414;2024-02-26T04:33:27;2.58;;;1.80;;
3052;SDS011;1536;51.098;6.414;2024-02-26T04:35:54;1.88;;;1.77;;
3052;SDS011;1536;51.098;6.414;2024-02-26T04:38:22;2.38;;;1.75;;
3052;SDS011;1536;51.098;6.414;2024-02-26T04:40:48;3.80;;;1.95;;
3052;SDS011;1536;51.098;6.414;2024-02-26T04:43:15;1.95;;;1.73;;
3052;SDS011;1536;51.098;6.414;2024-02-26T04:45:43;1.98;;;1.77;;
3052;SDS011;1536;51.098;6.414;2024-02-26T04:48:10;1.92;;;1.75;;
3052;SDS011;1536;51.098;6.414;2024-02-26T04:50:36;1.80;;;1.70;;
3052;SDS011;1536;51.098;6.414;2024-02-26T04:53:03;2.53;;;1.80;;
3052;SDS011;1536;51.098;6.414;2024-02-26T04:55:32;2.53;;;2.00;;
3052;SDS011;1536;51.098;6.414;2024-02-26T04:57:59;2.42;;;2.20;;
3052;SDS011;1536;51.098;6.414;2024-02-26T05:00:25;2.10;;;1.90;;
3052;SDS011;1536;51.098;6.414;2024-02-26T05:02:52;2.75;;;2.22;;
3052;SDS011;1536;51.098;6.414;2024-02-26T05:05:19;2.33;;;2.13;;
3052;SDS011;1536;51.098;6.414;2024-02-26T05:07:46;2.70;;;2.20;;
3052;SDS011;1536;51.098;6.414;2024-02-26T05:10:13;2.70;;;2.40;;
3052;SDS011;1536;51.098;6.414;2024-02-26T05:12:41;1.70;;;1.60;;
3052;SDS011;1536;51.098;6.414;2024-02-26T05:15:08;3.60;;;2.15;;
3052;SDS011;1536;51.098;6.414;2024-02-26T05:17:35;3.70;;;2.00;;
3052;SDS011;1536;51.098;6.414;2024-02-26T05:20:03;4.38;;;2.05;;
3052;SDS011;1536;51.098;6.414;2024-02-26T05:22:33;3.92;;;2.40;;
3052;SDS011;1536;51.098;6.414;2024-02-26T05:24:59;6.47;;;2.28;;
3052;SDS011;1536;51.098;6.414;2024-02-26T05:27:27;2.92;;;1.90;;
3052;SDS011;1536;51.098;6.414;2024-02-26T05:29:56;3.20;;;2.75;;
3052;SDS011;1536;51.098;6.414;2024-02-26T05:32:22;3.05;;;2.35;;
3052;SDS011;1536;51.098;6.414;2024-02-26T05:34:49;6.15;;;2.53;;
3052;SDS011;1536;51.098;6.414;2024-02-26T05:37:16;2.67;;;2.13;;
3052;SDS011;1536;51.098;6.414;2024-02-26T05:39:43;3.53;;;2.50;;
3052;SDS011;1536;51.098;6.414;2024-02-26T05:42:10;3.47;;;2.50;;
3052;SDS011;1536;51.098;6.414;2024-02-26T05:44:37;2.45;;;2.25;;
3052;SDS011;1536;51.098;6.414;2024-02-26T05:47:05;4.32;;;2.30;;
3052;SDS011;1536;51.098;6.414;2024-02-26T05:49:32;4.60;;;2.30;;
3052;SDS011;1536;51.098;6.414;2024-02-26T05:51:59;2.40;;;2.30;;
3052;SDS011;1536;51.098;6.414;2024-02-26T05:54:25;5.50;;;2.83;;
3052;SDS011;1536;51.098;6.414;2024-02-26T05:56:52;2.60;;;2.40;;
3052;SDS011;1536;51.098;6.414;2024-02-26T05:59:19;3.38;;;2.60;;
3052;SDS011;1536;51.098;6.414;2024-02-26T06:01:46;3.90;;;2.40;;
3052;SDS011;1536;51.098;6.414;2024-02-26T06:04:14;8.00;;;2.00;;
3052;SDS011;1536;51.098;6.414;2024-02-26T06:06:42;2.45;;;2.25;;
3052;SDS011;1536;51.098;6.414;2024-02-26T06:09:10;3.80;;;2.45;;
3052;SDS011;1536;51.098;6.414;2024-02-26T06:11:40;2.97;;;2.67;;
3052;SDS011;1536;51.098;6.414;2024-02-26T06:14:07;3.22;;;2.58;;
3052;SDS011;1536;51.098;6.414;2024-02-26T06:16:35;5.85;;;2.45;;
3052;SDS011;1536;51.098;6.414;2024-02-26T06:19:01;3.22;;;2.60;;
3052;SDS011;1536;51.098;6.414;2024-02-26T06:21:30;2.95;;;2.65;;
3052;SDS011;1536;51.098;6.414;2024-02-26T06:23:57;2.78;;;2.47;;
3052;SDS011;1536;51.098;6.414;2024-02-26T06:26:24;5.05;;;3.03;;
3052;SDS011;1536;51.098;6.414;2024-02-26T06:28:53;3.08;;;2.78;;
3052;SDS011;1536;51.098;6.414;2024-02-26T06:31:21;3.67;;;2.70;;
3052;SDS011;1536;51.098;6.414;2024-02-26T06:33:48;3.33;;;2.70;;
3052;SDS011;1536;51.098;6.414;2024-02-26T06:36:15;3.45;;;2.92;;
3052;SDS011;1536;51.098;6.414;2024-02-26T06:38:43;3.00;;;2.70;;
3052;SDS011;1536;51.098;6.414;2024-02-26T06:41:10;3.03;;;2.80;;
3052;SDS011;1536;51.098;6.414;2024-02-26T06:43:37;5.53;;;3.95;;
3052;SDS011;1536;51.098;6.414;2024-02-26T06:46:05;3.50;;;2.85;;
3052;SDS011;1536;51.098;6.414;2024-02-26T06:48:32;2.80;;;2.50;;
3052;SDS011;1536;51.098;6.414;2024-02-26T06:50:59;4.03;;;3.25;;
3052;SDS011;1536;51.098;6.414;2024-02-26T06:53:26;5.03;;;3.25;;
3052;SDS011;1536;51.098;6.414;2024-02-26T06:55:54;5.50;;;3.55;;
3052;SDS011;1536;51.098;6.414;2024-02-26T06:58:21;3.80;;;3.30;;
3052;SDS011;1536;51.098;6.414;2024-02-26T07:00:48;4.22;;;3.10;;
3052;SDS011;1536;51.098;6.414;2024-02-26T07:03:29;3.90;;;3.50;;
3052;SDS011;1536;51.098;6.414;2024-02-26T07:05:55;3.67;;;3.10;;
3052;SDS011;1536;51.098;6.414;2024-02-26T07:08:22;3.63;;;3.30;;
3052;SDS011;1536;51.098;6.414;2024-02-26T07:10:49;4.05;;;3.63;;
3052;SDS011;1536;51.098;6.414;2024-02-26T07:13:18;7.30;;;4.30;;
3052;SDS011;1536;51.098;6.414;2024-02-26T07:15:46;3.40;;;3.00;;
3052;SDS011;1536;51.098;6.414;2024-02-26T07:18:12;10.52;;;4.47;;
3052;SDS011;1536;51.098;6.414;2024-02-26T07:20:39;5.15;;;3.67;;
3052;SDS011;1536;51.098;6.414;2024-02-26T07:23:06;4.22;;;3.83;;
3052;SDS011;1536;51.098;6.414;2024-02-26T07:25:33;5.72;;;3.63;;
3052;SDS011;1536;51.098;6.414;2024-02-26T07:28:01;4.88;;;3.67;;
3052;SDS011;1536;51.098;6.414;2024-02-26T07:30:29;6.28;;;4.03;;
3052;SDS011;1536;51.098;6.414;2024-02-26T07:32:56;2.92;;;2.72;;
3052;SDS011;1536;51.098;6.414;2024-02-26T07:35:23;3.70;;;3.40;;
3052;SDS011;1536;51.098;6.414;2024-02-26T07:37:50;4.32;;;3.90;;
3052;SDS011;1536;51.098;6.414;2024-02-26T07:40:17;5.38;;;3.28;;
3052;SDS011;1536;51.098;6.414;2024-02-26T07:42:44;5.75;;;3.30;;
3052;SDS011;1536;51.098;6.414;2024-02-26T07:45:11;3.47;;;3.03;;
3052;SDS011;1536;51.098;6.414;2024-02-26T07:47:42;4.68;;;3.70;;
3052;SDS011;1536;51.098;6.414;2024-02-26T07:50:08;3.53;;;3.22;;
3052;SDS011;1536;51.098;6.414;2024-02-26T07:52:37;5.97;;;3.83;;
3052;SDS011;1536;51.098;6.414;2024-02-26T07:55:04;5.28;;;3.47;;
3052;SDS011;1536;51.098;6.414;2024-02-26T07:57:32;4.15;;;3.17;;
3052;SDS011;1536;51.098;6.414;2024-02-26T07:59:59;3.30;;;3.00;;
3052;SDS011;1536;51.098;6.414;2024-02-26T08:02:26;3.50;;;3.20;;
3052;SDS011;1536;51.098;6.414;2024-02-26T08:04:54;4.70;;;3.80;;
3052;SDS011;1536;51.098;6.414;2024-02-26T08:07:21;6.00;;;3.58;;
3052;SDS011;1536;51.098;6.414;2024-02-26T08:09:48;3.20;;;2.90;;
3052;SDS011;1536;51.098;6.414;2024-02-26T08:12:15;3.97;;;2.92;;
3052;SDS011;1536;51.098;6.414;2024-02-26T08:14:42;3.45;;;3.15;;
3052;SDS011;1536;51.098;6.414;2024-02-26T08:17:09;4.53;;;3.30;;
3052;SDS011;1536;51.098;6.414;2024-02-26T08:19:36;3.55;;;3.10;;
3052;SDS011;1536;51.098;6.414;2024-02-26T08:22:07;3.22;;;2.95;;
3052;SDS011;1536;51.098;6.414;2024-02-26T08:24:35;9.50;;;3.20;;
3052;SDS011;1536;51.098;6.414;2024-02-26T08:27:02;4.85;;;2.80;;
3052;SDS011;1536;51.098;6.414;2024-02-26T08:29:29;3.42;;;3.13;;
3052;SDS011;1536;51.098;6.414;2024-02-26T08:31:56;4.82;;;3.17;;
3052;SDS011;1536;51.098;6.414;2024-02-26T08:34:23;4.03;;;3.05;;
3052;SDS011;1536;51.098;6.414;2024-02-26T08:36:49;5.53;;;3.05;;
3052;SDS011;1536;51.098;6.414;2024-02-26T08:39:18;3.60;;;3.00;;
3052;SDS011;1536;51.098;6.414;2024-02-26T08:41:45;2.92;;;2.58;;
3052;SDS011;1536;51.098;6.414;2024-02-26T08:44:12;6.78;;;3.10;;
3052;SDS011;1536;51.098;6.414;2024-02-26T08:46:39;3.58;;;3.10;;
3052;SDS011;1536;51.098;6.414;2024-02-26T08:49:06;8.65;;;2.42;;
3052;SDS011;1536;51.098;6.414;2024-02-26T08:51:33;4.32;;;2.92;;
3052;SDS011;1536;51.098;6.414;2024-02-26T08:53:59;3.97;;;3.22;;
3052;SDS011;1536;51.098;6.414;2024-02-26T08:56:28;4.43;;;3.70;;
3052;SDS011;1536;51.098;6.414;2024-02-26T08:58:54;5.25;;;3.80;;
3052;SDS011;1536;51.098;6.414;2024-02-26T09:01:22;3.78;;;2.75;;
3052;SDS011;1536;51.098;6.414;2024-02-26T09:03:49;3.35;;;2.60;;
3052;SDS011;1536;51.098;6.414;2024-02-26T09:06:16;5.25;;;3.10;;
3052;SDS011;1536;51.098;6.414;2024-02-26T09:08:43;3.03;;;2.40;;
3052;SDS011;1536;51.098;6.414;2024-02-26T09:11:10;3.20;;;2.92;;
3052;SDS011;1536;51.098;6.414;2024-02-26T09:13:38;2.97;;;2.65;;
3052;SDS011;1536;51.098;6.414;2024-02-26T09:16:05;5.32;;;2.45;;
3052;SDS011;1536;51.098;6.414;2024-02-26T09:18:32;3.05;;;2.67;;
3052;SDS011;1536;51.098;6.414;2024-02-26T09:20:59;3.20;;;2.90;;
3052;SDS011;1536;51.098;6.414;2024-02-26T09:23:26;2.55;;;2.35;;
3052;SDS011;1536;51.098;6.414;2024-02-26T09:25:52;3.25;;;2.15;;
3052;SDS011;1536;51.098;6.414;2024-02-26T09:28:19;3.35;;;2.20;;
3052;SDS011;1536;51.098;6.414;2024-02-26T09:30:47;3.83;;;2.60;;
3052;SDS011;1536;51.098;6.414;2024-02-26T09:33:16;3.20;;;2.90;;
3052;SDS011;1536;51.098;6.414;2024-02-26T09:35:43;3.88;;;3.00;;
3052;SDS011;1536;51.098;6.414;2024-02-26T09:38:09;3.17;;;2.83;;
3052;SDS011;1536;51.098;6.414;2024-02-26T09:40:36;2.83;;;2.55;;
3052;SDS011;1536;51.098;6.414;2024-02-26T09:43:05;3.78;;;2.13;;
3052;SDS011;1536;51.098;6.414;2024-02-26T09:45:40;3.25;;;2.75;;
3052;SDS011;1536;51.098;6.414;2024-02-26T09:48:09;3.00;;;2.70;;
3052;SDS011;1536;51.098;6.414;2024-02-26T09:50:38;3.80;;;3.00;;
3052;SDS011;1536;51.098;6.414;2024-02-26T09:53:07;8.40;;;3.00;;
3052;SDS011;1536;51.098;6.414;2024-02-26T09:55:36;4.10;;;2.78;;
3052;SDS011;1536;51.098;6.414;2024-02-26T09:58:03;3.50;;;3.20;;
3052;SDS011;1536;51.098;6.414;2024-02-26T10:00:32;3.03;;;2.45;;
3052;SDS011;1536;51.098;6.414;2024-02-26T10:03:04;3.05;;;2.85;;
3052;SDS011;1536;51.098;6.414;2024-02-26T10:05:32;3.40;;;2.83;;
3052;SDS011;1536;51.098;6.414;2024-02-26T10:08:00;3.45;;;2.80;;
3052;SDS011;1536;51.098;6.414;2024-02-26T10:10:28;4.03;;;2.85;;
3052;SDS011;1536;51.098;6.414;2024-02-26T10:12:56;3.75;;;3.10;;
3052;SDS011;1536;51.098;6.414;2024-02-26T10:15:24;3.28;;;2.88;;
3052;SDS011;1536;51.098;6.414;2024-02-26T10:17:51;3.85;;;2.65;;
3052;SDS011;1536;51.098;6.414;2024-02-26T10:20:18;2.83;;;2.53;;
3052;SDS011;1536;51.098;6.414;2024-02-26T10:22:48;2.67;;;2.47;;
3052;SDS011;1536;51.098;6.414;2024-02-26T10:25:15;4.47;;;2.70;;
3052;SDS011;1536;51.098;6.414;2024-02-26T10:27:43;3.47;;;2.88;;
3052;SDS011;1536;51.098;6.414;2024-02-26T10:30:15;3.47;;;2.75;;
3052;SDS011;1536;51.098;6.414;2024-02-26T10:32:44;3.60;;;2.25;;
3052;SDS011;1536;51.098;6.414;2024-02-26T10:35:11;3.00;;;2.72;;
3052;SDS011;1536;51.098;6.414;2024-02-26T10:37:39;3.25;;;2.78;;
3052;SDS011;1536;51.098;6.414;2024-02-26T10:40:08;3.28;;;2.60;;
3052;SDS011;1536;51.098;6.414;2024-02-26T10:42:36;5.22;;;3.78;;
3052;SDS011;1536;51.098;6.414;2024-02-26T10:45:04;3.58;;;2.83;;
3052;SDS011;1536;51.098;6.414;2024-02-26T10:47:31;3.75;;;2.85;;
3052;SDS011;1536;51.098;6.414;2024-02-26T10:49:59;3.15;;;2.85;;
3052;SDS011;1536;51.098;6.414;2024-02-26T10:52:27;4.88;;;2.90;;
3052;SDS011;1536;51.098;6.414;2024-02-26T10:54:58;3.42;;;2.72;;
3052;SDS011;1536;51.098;6.414;2024-02-26T10:57:29;3.03;;;2.55;;
3052;SDS011;1536;51.098;6.414;2024-02-26T10:59:59;3.25;;;2.92;;
3052;SDS011;1536;51.098;6.414;2024-02-26T11:02:29;6.53;;;2.60;;
3052;SDS011;1536;51.098;6.414;2024-02-26T11:04:58;3.60;;;3.30;;
3052;SDS011;1536;51.098;6.414;2024-02-26T11:07:28;3.25;;;2.60;;
3052;SDS011;1536;51.098;6.414;2024-02-26T11:09:56;5.45;;;2.20;;
3052;SDS011;1536;51.098;6.414;2024-02-26T11:12:25;4.53;;;2.63;;
3052;SDS011;1536;51.098;6.414;2024-02-26T11:14:56;2.90;;;2.60;;
3052;SDS011;1536;51.098;6.414;2024-02-26T11:17:24;2.75;;;2.55;;
3052;SDS011;1536;51.098;6.414;2024-02-26T11:19:53;6.30;;;2.83;;
3052;SDS011;1536;51.098;6.414;2024-02-26T11:22:22;6.35;;;3.20;;
3052;SDS011;1536;51.098;6.414;2024-02-26T11:24:51;5.45;;;3.42;;
3052;SDS011;1536;51.098;6.414;2024-02-26T11:27:19;5.32;;;2.95;;
3052;SDS011;1536;51.098;6.414;2024-02-26T11:29:52;3.50;;;3.20;;
3052;SDS011;1536;51.098;6.414;2024-02-26T11:32:20;3.85;;;3.30;;
3052;SDS011;1536;51.098;6.414;2024-02-26T11:34:48;4.20;;;3.80;;
3052;SDS011;1536;51.098;6.414;2024-02-26T11:37:16;4.85;;;4.05;;
3052;SDS011;1536;51.098;6.414;2024-02-26T11:39:44;3.53;;;3.25;;
3052;SDS011;1536;51.098;6.414;2024-02-26T11:42:13;3.80;;;3.50;;
3052;SDS011;1536;51.098;6.414;2024-02-26T11:44:41;5.00;;;4.50;;
3052;SDS011;1536;51.098;6.414;2024-02-26T11:47:13;4.38;;;3.20;;
3052;SDS011;1536;51.098;6.414;2024-02-26T11:49:40;4.60;;;3.92;;
3052;SDS011;1536;51.098;6.414;2024-02-26T11:52:08;4.88;;;3.92;;
3052;SDS011;1536;51.098;6.414;2024-02-26T11:54:38;3.60;;;3.30;;
3052;SDS011;1536;51.098;6.414;2024-02-26T11:57:24;4.13;;;3.72;;
3052;SDS011;1536;51.098;6.414;2024-02-26T11:59:52;10.43;;;4.78;;
3052;SDS011;1536;51.098;6.414;2024-02-26T12:02:40;5.22;;;4.07;;
3052;SDS011;1536;51.098;6.414;2024-02-26T12:05:10;8.48;;;3.45;;
3052;SDS011;1536;51.098;6.414;2024-02-26T12:07:39;4.68;;;3.97;;
3052;SDS011;1536;51.098;6.414;2024-02-26T12:10:20;4.20;;;3.80;;
3052;SDS011;1536;51.098;6.414;2024-02-26T12:12:54;4.38;;;3.97;;
3052;SDS011;1536;51.098;6.414;2024-02-26T12:15:30;3.95;;;3.60;;
3052;SDS011;1536;51.098;6.414;2024-02-26T12:17:59;4.30;;;3.95;;
3052;SDS011;1536;51.098;6.414;2024-02-26T12:20:27;4.50;;;4.10;;
3052;SDS011;1536;51.098;6.414;2024-02-26T12:22:55;7.60;;;4.30;;
3052;SDS011;1536;51.098;6.414;2024-02-26T12:25:23;11.68;;;5.07;;
3052;SDS011;1536;51.098;6.414;2024-02-26T12:27:51;5.40;;;4.90;;
3052;SDS011;1536;51.098;6.414;2024-02-26T12:30:19;4.78;;;4.35;;
3052;SDS011;1536;51.098;6.414;2024-02-26T12:32:46;6.28;;;4.28;;
3052;SDS011;1536;51.098;6.414;2024-02-26T12:35:14;5.50;;;4.88;;
3052;SDS011;1536;51.098;6.414;2024-02-26T12:37:42;6.65;;;5.28;;
3052;SDS011;1536;51.098;6.414;2024-02-26T12:40:09;5.38;;;4.57;;
3052;SDS011;1536;51.098;6.414;2024-02-26T12:42:37;5.22;;;4.72;;
3052;SDS011;1536;51.098;6.414;2024-02-26T12:45:06;7.03;;;5.22;;
3052;SDS011;1536;51.098;6.414;2024-02-26T12:47:35;6.10;;;5.50;;
3052;SDS011;1536;51.098;6.414;2024-02-26T12:50:03;5.25;;;4.75;;
3052;SDS011;1536;51.098;6.414;2024-02-26T12:52:32;5.93;;;5.38;;
3052;SDS011;1536;51.098;6.414;2024-02-26T12:54:59;6.78;;;5.65;;
3052;SDS011;1536;51.098;6.414;2024-02-26T12:57:28;6.15;;;5.55;;
3052;SDS011;1536;51.098;6.414;2024-02-26T12:59:56;7.55;;;5.75;;
3052;SDS011;1536;51.098;6.414;2024-02-26T13:02:24;6.90;;;5.88;;
3052;SDS011;1536;51.098;6.414;2024-02-26T13:04:52;8.30;;;6.95;;
3052;SDS011;1536;51.098;6.414;2024-02-26T13:07:20;9.70;;;7.20;;
3052;SDS011;1536;51.098;6.414;2024-02-26T13:09:48;9.23;;;7.03;;
3052;SDS011;1536;51.098;6.414;2024-02-26T13:12:15;8.65;;;7.32;;
3052;SDS011;1536;51.098;6.414;2024-02-26T13:14:43;9.50;;;6.88;;
3052;SDS011;1536;51.098;6.414;2024-02-26T13:17:10;8.73;;;7.90;;
3052;SDS011;1536;51.098;6.414;2024-02-26T13:19:37;9.90;;;7.75;;
3052;SDS011;1536;51.098;6.414;2024-02-26T13:22:14;7.63;;;6.85;;
3052;SDS011;1536;51.098;6.414;2024-02-26T13:24:41;10.95;;;7.97;;
3052;SDS011;1536;51.098;6.414;2024-02-26T13:27:10;10.73;;;8.10;;
3052;SDS011;1536;51.098;6.414;2024-02-26T13:29:37;8.43;;;6.85;;
3052;SDS011;1536;51.098;6.414;2024-02-26T13:32:04;9.02;;;7.95;;
3052;SDS011;1536;51.098;6.414;2024-02-26T13:34:32;11.43;;;8.30;;
3052;SDS011;1536;51.098;6.414;2024-02-26T13:37:00;9.30;;;7.40;;
3052;SDS011;1536;51.098;6.414;2024-02-26T13:39:28;7.97;;;7.10;;
3052;SDS011;1536;51.098;6.414;2024-02-26T13:41:55;10.52;;;8.45;;
3052;SDS011;1536;51.098;6.414;2024-02-26T13:44:23;11.20;;;7.60;;
3052;SDS011;1536;51.098;6.414;2024-02-26T13:46:50;12.07;;;7.47;;
3052;SDS011;1536;51.098;6.414;2024-02-26T13:49:17;10.48;;;7.55;;
3052;SDS011;1536;51.098;6.414;2024-02-26T13:51:44;8.02;;;7.22;;
3052;SDS011;1536;51.098;6.414;2024-02-26T13:54:11;10.05;;;8.15;;
3052;SDS011;1536;51.098;6.414;2024-02-26T13:56:39;8.00;;;6.82;;
3052;SDS011;1536;51.098;6.414;2024-02-26T13:59:06;8.50;;;7.32;;
3052;SDS011;1536;51.098;6.414;2024-02-26T14:01:35;10.15;;;7.47;;
3052;SDS011;1536;51.098;6.414;2024-02-26T14:04:01;11.32;;;8.70;;
3052;SDS011;1536;51.098;6.414;2024-02-26T14:06:29;9.48;;;8.40;;
3052;SDS011;1536;51.098;6.414;2024-02-26T14:08:57;9.40;;;7.85;;
3052;SDS011;1536;51.098;6.414;2024-02-26T14:11:24;10.80;;;8.98;;
3052;SDS011;1536;51.098;6.414;2024-02-26T14:13:51;11.75;;;8.65;;
3052;SDS011;1536;51.098;6.414;2024-02-26T14:16:18;10.35;;;8.95;;
3052;SDS011;1536;51.098;6.414;2024-02-26T14:18:47;10.30;;;8.82;;
3052;SDS011;1536;51.098;6.414;2024-02-26T14:21:13;11.30;;;8.98;;
3052;SDS011;1536;51.098;6.414;2024-02-26T14:23:40;12.18;;;8.65;;
3052;SDS011;1536;51.098;6.414;2024-02-26T14:26:09;9.45;;;8.52;;
3052;SDS011;1536;51.098;6.414;2024-02-26T14:28:36;12.43;;;9.82;;
3052;SDS011;1536;51.098;6.414;2024-02-26T14:31:05;12.63;;;9.38;;
3052;SDS011;1536;51.098;6.414;2024-02-26T14:33:36;11.55;;;8.65;;
3052;SDS011;1536;51.098;6.414;2024-02-26T14:36:33;11.43;;;9.73;;
3052;SDS011;1536;51.098;6.414;2024-02-26T14:39:00;9.82;;;8.40;;
3052;SDS011;1536;51.098;6.414;2024-02-26T14:41:28;9.05;;;7.97;;
3052;SDS011;1536;51.098;6.414;2024-02-26T14:43:54;13.13;;;9.23;;
3052;SDS011;1536;51.098;6.414;2024-02-26T14:46:21;12.15;;;9.70;;
3052;SDS011;1536;51.098;6.414;2024-02-26T14:48:48;12.15;;;10.23;;
3052;SDS011;1536;51.098;6.414;2024-02-26T14:51:15;14.50;;;8.20;;
3052;SDS011;1536;51.098;6.414;2024-02-26T14:53:43;9.77;;;8.75;;
3052;SDS011;1536;51.098;6.414;2024-02-26T14:56:10;9.60;;;8.45;;
3052;SDS011;1536;51.098;6.414;2024-02-26T14:58:37;11.90;;;9.00;;
3052;SDS011;1536;51.098;6.414;2024-02-26T15:01:04;13.05;;;9.02;;
3052;SDS011;1536;51.098;6.414;2024-02-26T15:03:35;9.57;;;8.27;;
3052;SDS011;1536;51.098;6.414;2024-02-26T15:06:02;13.77;;;9.60;;
3052;SDS011;1536;51.098;6.414;2024-02-26T15:08:29;10.13;;;8.90;;
3052;SDS011;1536;51.098;6.414;2024-02-26T15:10:57;10.27;;;8.93;;
3052;SDS011;1536;51.098;6.414;2024-02-26T15:13:24;9.23;;;8.30;;
3052;SDS011;1536;51.098;6.414;2024-02-26T15:15:51;10.65;;;8.82;;
3052;SDS011;1536;51.098;6.414;2024-02-26T15:18:18;9.20;;;8.25;;
3052;SDS011;1536;51.098;6.414;2024-02-26T15:20:45;9.90;;;8.60;;
3052;SDS011;1536;51.098;6.414;2024-02-26T15:23:12;11.15;;;8.43;;